Time;durP1;ratioP1;P1;durP2;ratioP2;P2;SDS_P1;SDS_P2;PMS_P1;PMS_P2;Temp;Humidity;BMP_temperature;BMP_pressure;BME280_temperature;BME280_humidity;BME280_pressure;Samples;Min_cycle;Max_cycle;Signal;HPM_P1;HPM_P2
2021/09/07 00:01:11;;;;;;;;;;;10.60;99.90;;;;;;5111750;28;19959;-68
2021/09/07 00:03:37;;;;;;;;;;;10.70;99.90;;;;;;5097297;28;19908;-68
2021/09/07 00:06:02;;;;;;;;;;;10.70;99.90;;;;;;5109668;28;20598;-69
2021/09/07 00:08:28;;;;;;;;;;;10.70;99.90;;;;;;5108380;28;20339;-69
2021/09/07 00:10:53;;;;;;;;;;;10.80;99.90;;;;;;5108213;28;20010;-71
2021/09/07 00:13:19;;;;;;;;;;;10.70;99.90;;;;;;5108186;28;19911;-69
2021/09/07 00:15:44;;;;;;;;;;;10.50;99.90;;;;;;5105880;28;20334;-68
2021/09/07 00:18:10;;;;;;;;;;;10.40;99.90;;;;;;5107661;28;19908;-69
2021/09/07 00:20:35;;;;;;;;;;;10.50;99.90;;;;;;5108443;28;19907;-70
2021/09/07 00:23:01;;;;;;;;;;;10.50;99.90;;;;;;5097095;28;19908;-68
2021/09/07 00:25:27;;;;;;;;;;;10.50;99.90;;;;;;5111524;28;19908;-68
2021/09/07 00:27:52;;;;;;;;;;;10.40;99.90;;;;;;5111095;28;19995;-69
2021/09/07 00:30:18;;;;;;;;;;;10.30;99.90;;;;;;5097714;28;19919;-71
2021/09/07 00:32:43;;;;;;;;;;;10.20;99.90;;;;;;5111473;28;19919;-68
2021/09/07 00:35:11;;;;;;;;;;;10.30;99.90;;;;;;5111611;28;19908;-69
2021/09/07 00:37:37;;;;;;;;;;;10.30;99.90;;;;;;5099453;28;20041;-68
2021/09/07 00:40:03;;;;;;;;;;;10.30;99.90;;;;;;5111343;28;19915;-68
2021/09/07 00:42:28;;;;;;;;;;;10.20;99.90;;;;;;5111329;28;19908;-68
2021/09/07 00:44:54;;;;;;;;;;;10.20;99.90;;;;;;5097336;28;19914;-70
2021/09/07 00:47:19;;;;;;;;;;;10.30;99.90;;;;;;5110944;28;20364;-68
2021/09/07 00:49:45;;;;;;;;;;;10.40;99.90;;;;;;5111561;28;19912;-68
2021/09/07 00:52:13;;;;;;;;;;;10.30;99.90;;;;;;5110766;28;19918;-69
2021/09/07 00:54:38;;;;;;;;;;;10.30;99.90;;;;;;5104036;28;19914;-71
2021/09/07 00:57:05;;;;;;;;;;;10.20;99.90;;;;;;5110732;28;20326;-68
2021/09/07 00:59:32;;;;;;;;;;;10.20;99.90;;;;;;5097210;28;19991;-69
2021/09/07 01:01:58;;;;;;;;;;;10.20;99.90;;;;;;5095137;28;20356;-68
2021/09/07 01:04:23;;;;;;;;;;;10.00;99.90;;;;;;5111257;28;20070;-68
2021/09/07 01:06:49;;;;;;;;;;;10.00;99.90;;;;;;5091332;28;20365;-69
2021/09/07 01:09:14;;;;;;;;;;;10.10;99.90;;;;;;5111019;28;19911;-69
2021/09/07 01:11:40;;;;;;;;;;;10.10;99.90;;;;;;5103058;28;19908;-68
2021/09/07 01:14:06;;;;;;;;;;;10.10;99.90;;;;;;5111013;28;19914;-68
2021/09/07 01:16:31;;;;;;;;;;;10.10;99.90;;;;;;5114453;28;19931;-68
2021/09/07 01:18:59;;;;;;;;;;;10.00;99.90;;;;;;5115166;28;19914;-70
2021/09/07 01:21:26;;;;;;;;;;;10.00;99.90;;;;;;5114108;28;19915;-69
2021/09/07 01:23:51;;;;;;;;;;;10.00;99.90;;;;;;5115122;28;20364;-69
2021/09/07 01:26:19;;;;;;;;;;;9.90;99.90;;;;;;5114364;28;19953;-69
2021/09/07 01:28:45;;;;;;;;;;;9.80;99.90;;;;;;5114906;28;19908;-69
2021/09/07 01:31:11;;;;;;;;;;;9.80;99.90;;;;;;5114990;28;19911;-70
2021/09/07 01:33:37;;;;;;;;;;;9.90;99.90;;;;;;5114971;28;20217;-69
2021/09/07 01:36:03;;;;;;;;;;;9.90;99.90;;;;;;5114532;28;19977;-69
2021/09/07 01:38:29;;;;;;;;;;;9.90;99.90;;;;;;5114641;28;20281;-69
2021/09/07 01:40:55;;;;;;;;;;;10.00;99.90;;;;;;5114493;28;19907;-69
2021/09/07 01:43:21;;;;;;;;;;;9.90;99.90;;;;;;5107659;28;19908;-69
2021/09/07 01:45:47;;;;;;;;;;;9.80;99.90;;;;;;5114269;28;20041;-69
2021/09/07 01:48:16;;;;;;;;;;;9.80;99.90;;;;;;5114463;28;20071;-69
2021/09/07 01:50:42;;;;;;;;;;;9.80;99.90;;;;;;5114383;28;20387;-69
2021/09/07 01:53:08;;;;;;;;;;;9.70;99.90;;;;;;5114268;28;19914;-69
2021/09/07 01:55:33;;;;;;;;;;;9.60;99.90;;;;;;5114325;28;19912;-69
2021/09/07 01:57:58;;;;;;;;;;;9.60;99.90;;;;;;5114155;28;19914;-69
2021/09/07 02:00:24;;;;;;;;;;;9.60;99.90;;;;;;5114439;28;20288;-69
2021/09/07 02:02:50;;;;;;;;;;;9.60;99.90;;;;;;5114456;28;19935;-69
2021/09/07 02:05:15;;;;;;;;;;;9.60;99.90;;;;;;5114505;28;19907;-69
2021/09/07 02:07:41;;;;;;;;;;;9.60;99.90;;;;;;5113983;28;19908;-69
2021/09/07 02:10:07;;;;;;;;;;;9.60;99.90;;;;;;5114265;28;19916;-69
2021/09/07 02:12:32;;;;;;;;;;;9.70;99.90;;;;;;5104661;28;19907;-69
2021/09/07 02:14:58;;;;;;;;;;;9.70;99.90;;;;;;5111954;28;19915;-69
2021/09/07 02:17:24;;;;;;;;;;;9.60;99.90;;;;;;5113951;28;20566;-70
2021/09/07 02:19:53;;;;;;;;;;;9.60;99.90;;;;;;5114112;28;20279;-69
2021/09/07 02:22:19;;;;;;;;;;;9.40;99.90;;;;;;5095603;28;20444;-69
2021/09/07 02:24:45;;;;;;;;;;;9.50;99.90;;;;;;5114021;28;19916;-69
2021/09/07 02:27:10;;;;;;;;;;;9.60;99.90;;;;;;5112666;28;20334;-69
2021/09/07 02:29:36;;;;;;;;;;;9.60;99.90;;;;;;5113913;28;20133;-69
2021/09/07 02:32:01;;;;;;;;;;;9.60;99.90;;;;;;5113897;28;20427;-69
2021/09/07 02:34:27;;;;;;;;;;;9.60;99.90;;;;;;5113824;28;20300;-70
2021/09/07 02:36:52;;;;;;;;;;;9.40;99.90;;;;;;5113331;28;19908;-70
2021/09/07 02:39:18;;;;;;;;;;;9.40;99.90;;;;;;5113741;28;20377;-69
2021/09/07 02:41:43;;;;;;;;;;;9.40;99.90;;;;;;5113731;28;19919;-69
2021/09/07 02:44:09;;;;;;;;;;;9.30;99.90;;;;;;5109956;28;20436;-69
2021/09/07 02:46:35;;;;;;;;;;;9.30;99.90;;;;;;5113047;28;19923;-70
2021/09/07 02:49:00;;;;;;;;;;;9.30;99.90;;;;;;5113514;28;20323;-70
2021/09/07 02:51:26;;;;;;;;;;;9.20;99.90;;;;;;5113318;28;19907;-70
2021/09/07 02:53:51;;;;;;;;;;;9.30;99.90;;;;;;5113504;28;19912;-69
2021/09/07 02:56:16;;;;;;;;;;;9.20;99.90;;;;;;5113059;28;20375;-69
2021/09/07 02:58:42;;;;;;;;;;;9.10;99.90;;;;;;5113520;28;19907;-69
2021/09/07 03:01:07;;;;;;;;;;;9.10;99.90;;;;;;5113505;28;20393;-69
2021/09/07 03:03:33;;;;;;;;;;;9.10;99.90;;;;;;5113239;28;19908;-69
2021/09/07 03:06:00;;;;;;;;;;;9.20;99.90;;;;;;5113103;28;19961;-69
2021/09/07 03:08:26;;;;;;;;;;;9.10;99.90;;;;;;5113025;28;19931;-69
2021/09/07 03:10:52;;;;;;;;;;;9.10;99.90;;;;;;5112971;28;20376;-69
2021/09/07 03:13:17;;;;;;;;;;;9.10;99.90;;;;;;5105998;28;19908;-69
2021/09/07 03:15:43;;;;;;;;;;;8.90;99.90;;;;;;5092781;28;19995;-69
2021/09/07 03:18:11;;;;;;;;;;;8.90;99.90;;;;;;5092379;28;19915;-69
2021/09/07 03:20:37;;;;;;;;;;;9.00;99.90;;;;;;5092497;28;19920;-69
2021/09/07 03:23:02;;;;;;;;;;;9.10;99.90;;;;;;5092458;28;19908;-69
2021/09/07 03:25:28;;;;;;;;;;;9.00;99.90;;;;;;5092381;28;20434;-69
2021/09/07 03:27:53;;;;;;;;;;;9.10;99.90;;;;;;5090852;28;20326;-69
2021/09/07 03:30:19;;;;;;;;;;;9.00;99.90;;;;;;5092458;28;20357;-69
2021/09/07 03:32:45;;;;;;;;;;;9.00;99.90;;;;;;5092264;28;19954;-69
2021/09/07 03:35:10;;;;;;;;;;;8.90;99.90;;;;;;5092736;28;19966;-69
2021/09/07 03:37:36;;;;;;;;;;;8.80;99.90;;;;;;5091725;28;19915;-69
2021/09/07 03:40:02;;;;;;;;;;;8.90;99.90;;;;;;5092132;28;20292;-69
2021/09/07 03:42:27;;;;;;;;;;;8.80;99.90;;;;;;5092108;28;19915;-69
2021/09/07 03:44:53;;;;;;;;;;;8.80;99.90;;;;;;5087154;28;19939;-69
2021/09/07 03:47:18;;;;;;;;;;;8.70;99.90;;;;;;5108014;28;19916;-69
2021/09/07 03:49:44;;;;;;;;;;;8.70;99.90;;;;;;5112200;28;19964;-69
2021/09/07 03:52:09;;;;;;;;;;;8.70;99.90;;;;;;5112208;28;19915;-69
2021/09/07 03:54:35;;;;;;;;;;;8.70;99.90;;;;;;5112223;28;19914;-69
2021/09/07 03:57:00;;;;;;;;;;;8.60;99.90;;;;;;5111909;28;20048;-69
2021/09/07 03:59:26;;;;;;;;;;;8.70;99.90;;;;;;5112239;28;19915;-69
2021/09/07 04:01:52;;;;;;;;;;;8.80;99.90;;;;;;5112120;28;19914;-69
2021/09/07 04:04:20;;;;;;;;;;;8.80;99.90;;;;;;5112189;28;19915;-69
2021/09/07 04:06:46;;;;;;;;;;;8.80;99.90;;;;;;5111748;28;19912;-69
2021/09/07 04:09:11;;;;;;;;;;;8.80;99.90;;;;;;5111959;28;19908;-69
2021/09/07 04:11:37;;;;;;;;;;;8.90;99.90;;;;;;5111911;28;19907;-69
2021/09/07 04:14:02;;;;;;;;;;;8.90;99.90;;;;;;5106510;28;20307;-69
2021/09/07 04:16:28;;;;;;;;;;;8.90;99.90;;;;;;5111672;28;20353;-69
2021/09/07 04:18:53;;;;;;;;;;;8.90;99.90;;;;;;5111936;28;20435;-69
2021/09/07 04:21:19;;;;;;;;;;;8.80;99.90;;;;;;5111739;28;20348;-69
2021/09/07 04:23:44;;;;;;;;;;;8.80;99.90;;;;;;5111826;28;20387;-69
2021/09/07 04:26:10;;;;;;;;;;;8.80;99.90;;;;;;5111389;28;19914;-69
2021/09/07 04:28:35;;;;;;;;;;;8.80;99.90;;;;;;5111876;28;19915;-69
2021/09/07 04:31:01;;;;;;;;;;;8.80;99.90;;;;;;5111672;28;19912;-69
2021/09/07 04:33:26;;;;;;;;;;;8.70;99.90;;;;;;5111808;28;20383;-69
2021/09/07 04:35:52;;;;;;;;;;;8.70;99.90;;;;;;5112101;28;19918;-69
2021/09/07 04:38:17;;;;;;;;;;;8.70;99.90;;;;;;5111518;28;20037;-69
2021/09/07 04:40:43;;;;;;;;;;;8.80;99.90;;;;;;5111615;28;20372;-69
2021/09/07 04:43:08;;;;;;;;;;;8.70;99.90;;;;;;5107609;28;19908;-69
2021/09/07 04:45:34;;;;;;;;;;;8.60;99.90;;;;;;5111424;28;19918;-69
2021/09/07 04:47:59;;;;;;;;;;;8.70;99.90;;;;;;5111436;28;20097;-69
2021/09/07 04:50:25;;;;;;;;;;;8.70;99.90;;;;;;5113306;28;20015;-69
2021/09/07 04:52:50;;;;;;;;;;;8.80;99.90;;;;;;5115552;28;19927;-69
2021/09/07 04:55:16;;;;;;;;;;;8.80;99.90;;;;;;5115663;28;19907;-69
2021/09/07 04:57:41;;;;;;;;;;;8.90;99.90;;;;;;5115297;28;19908;-69
2021/09/07 05:00:07;;;;;;;;;;;9.00;99.90;;;;;;5115659;28;19961;-69
2021/09/07 05:02:33;;;;;;;;;;;9.10;99.90;;;;;;5115749;28;19912;-69
2021/09/07 05:05:01;;;;;;;;;;;9.10;99.90;;;;;;5115307;28;19947;-69
2021/09/07 05:07:27;;;;;;;;;;;9.10;99.90;;;;;;5115155;28;20390;-69
2021/09/07 05:09:54;;;;;;;;;;;9.10;99.90;;;;;;5115226;28;19967;-69
2021/09/07 05:12:20;;;;;;;;;;;9.00;99.90;;;;;;5115790;28;19908;-69
2021/09/07 05:14:45;;;;;;;;;;;9.20;99.90;;;;;;5095334;28;19915;-69
2021/09/07 05:17:11;;;;;;;;;;;9.20;99.90;;;;;;5094561;28;19952;-69
2021/09/07 05:19:37;;;;;;;;;;;9.10;99.90;;;;;;5094753;28;19950;-69
2021/09/07 05:22:02;;;;;;;;;;;9.20;99.90;;;;;;5094824;28;20364;-69
2021/09/07 05:24:28;;;;;;;;;;;9.20;99.90;;;;;;5094805;28;20314;-69
2021/09/07 05:26:53;;;;;;;;;;;9.20;99.90;;;;;;5094369;28;19919;-69
2021/09/07 05:29:19;;;;;;;;;;;9.20;99.90;;;;;;5094700;28;20289;-69
2021/09/07 05:31:45;;;;;;;;;;;9.30;99.90;;;;;;5094564;28;19912;-69
2021/09/07 05:34:10;;;;;;;;;;;9.40;99.90;;;;;;5094470;28;19908;-69
2021/09/07 05:36:36;;;;;;;;;;;9.50;99.90;;;;;;5094354;28;19912;-69
2021/09/07 05:39:01;;;;;;;;;;;9.50;99.90;;;;;;5094125;28;19915;-69
2021/09/07 05:41:27;;;;;;;;;;;9.70;99.90;;;;;;5094346;28;19915;-69
2021/09/07 05:43:52;;;;;;;;;;;9.80;99.90;;;;;;5091841;28;19912;-69
2021/09/07 05:46:18;;;;;;;;;;;9.80;99.90;;;;;;5101604;28;20003;-69
2021/09/07 05:48:45;;;;;;;;;;;9.90;99.90;;;;;;5114475;28;19999;-69
2021/09/07 05:51:11;;;;;;;;;;;10.00;99.90;;;;;;5114467;28;19966;-69
2021/09/07 05:53:39;;;;;;;;;;;10.10;99.90;;;;;;5114525;28;19912;-69
2021/09/07 05:56:04;;;;;;;;;;;10.20;99.90;;;;;;5114087;28;19912;-69
2021/09/07 05:58:30;;;;;;;;;;;10.40;99.90;;;;;;5114335;28;19908;-69
2021/09/07 06:00:55;;;;;;;;;;;10.40;99.90;;;;;;5113557;28;19908;-69
2021/09/07 06:03:21;;;;;;;;;;;10.60;99.90;;;;;;5113930;28;19960;-69
2021/09/07 06:05:47;;;;;;;;;;;10.70;99.90;;;;;;5096817;28;19916;-69
2021/09/07 06:08:12;;;;;;;;;;;10.80;99.90;;;;;;5091756;28;19908;-69
2021/09/07 06:10:38;;;;;;;;;;;10.90;99.90;;;;;;5105704;28;20315;-71
2021/09/07 06:13:05;;;;;;;;;;;11.00;99.90;;;;;;5092613;28;20007;-71
2021/09/07 06:15:31;;;;;;;;;;;11.10;99.90;;;;;;5113904;28;19908;-71
2021/09/07 06:17:57;;;;;;;;;;;11.30;99.90;;;;;;5098098;28;20043;-70
2021/09/07 06:20:23;;;;;;;;;;;11.40;99.90;;;;;;5112933;28;20015;-70
2021/09/07 06:22:49;;;;;;;;;;;11.50;99.90;;;;;;5112917;28;19915;-70
2021/09/07 06:25:14;;;;;;;;;;;11.70;99.90;;;;;;5114147;28;19912;-70
2021/09/07 06:27:40;;;;;;;;;;;11.80;99.90;;;;;;5113699;28;19942;-70
2021/09/07 06:30:06;;;;;;;;;;;11.90;99.90;;;;;;5113500;28;20280;-70
2021/09/07 06:32:31;;;;;;;;;;;12.10;99.90;;;;;;5094696;28;19907;-70
2021/09/07 06:34:58;;;;;;;;;;;12.20;99.90;;;;;;5110088;28;19961;-70
2021/09/07 06:37:24;;;;;;;;;;;12.30;99.90;;;;;;5094013;28;20341;-70
2021/09/07 06:39:50;;;;;;;;;;;12.40;99.90;;;;;;5091683;28;19969;-70
2021/09/07 06:42:15;;;;;;;;;;;12.60;99.90;;;;;;5113373;28;20360;-70
2021/09/07 06:44:41;;;;;;;;;;;12.80;99.90;;;;;;5113481;28;19915;-70
2021/09/07 06:47:06;;;;;;;;;;;13.10;99.90;;;;;;5110550;28;20403;-70
2021/09/07 06:49:32;;;;;;;;;;;13.40;99.90;;;;;;5092918;28;20285;-70
2021/09/07 06:51:57;;;;;;;;;;;13.80;99.90;;;;;;5092716;28;19908;-70
2021/09/07 06:54:23;;;;;;;;;;;14.10;99.90;;;;;;5093108;28;19915;-70
2021/09/07 06:56:48;;;;;;;;;;;14.20;99.90;;;;;;5092773;28;19977;-70
2021/09/07 06:59:14;;;;;;;;;;;14.20;99.90;;;;;;5093218;28;19912;-70
2021/09/07 07:01:39;;;;;;;;;;;14.20;99.90;;;;;;5092734;28;19962;-71
2021/09/07 07:04:05;;;;;;;;;;;14.20;99.90;;;;;;5093007;28;19931;-70
2021/09/07 07:06:30;;;;;;;;;;;14.30;99.90;;;;;;5091999;28;19912;-71
2021/09/07 07:08:56;;;;;;;;;;;14.50;99.90;;;;;;5092827;28;19915;-71
2021/09/07 07:11:21;;;;;;;;;;;14.60;99.90;;;;;;5097606;28;19918;-70
2021/09/07 07:13:47;;;;;;;;;;;14.70;99.90;;;;;;5112588;28;19915;-71
2021/09/07 07:16:12;;;;;;;;;;;14.80;99.90;;;;;;5094239;28;19908;-71
2021/09/07 07:18:38;;;;;;;;;;;14.90;99.90;;;;;;5097413;28;19908;-71
2021/09/07 07:21:03;;;;;;;;;;;15.20;99.90;;;;;;5092270;28;19943;-71
2021/09/07 07:23:29;;;;;;;;;;;15.40;99.90;;;;;;5092593;28;19915;-71
2021/09/07 07:25:54;;;;;;;;;;;15.70;99.90;;;;;;5092271;28;19912;-71
2021/09/07 07:28:20;;;;;;;;;;;15.80;99.90;;;;;;5092055;28;19908;-71
2021/09/07 07:30:45;;;;;;;;;;;16.00;99.90;;;;;;5092188;28;20392;-71
2021/09/07 07:33:11;;;;;;;;;;;16.20;99.90;;;;;;5092224;28;20372;-71
2021/09/07 07:35:36;;;;;;;;;;;16.80;99.90;;;;;;5090963;28;19919;-71
2021/09/07 07:38:02;;;;;;;;;;;18.50;99.90;;;;;;5069390;28;19908;-71
2021/09/07 07:40:27;;;;;;;;;;;19.40;99.90;;;;;;5092203;28;19962;-71
2021/09/07 07:42:53;;;;;;;;;;;19.70;99.90;;;;;;5092000;28;19951;-71
2021/09/07 07:45:18;;;;;;;;;;;19.50;99.90;;;;;;5091694;28;20002;-71
2021/09/07 07:47:44;;;;;;;;;;;20.60;99.90;;;;;;5098461;28;19917;-71
2021/09/07 07:50:10;;;;;;;;;;;20.80;99.90;;;;;;5111894;28;19916;-71
2021/09/07 07:52:37;;;;;;;;;;;21.50;99.90;;;;;;5111690;28;20298;-71
2021/09/07 07:55:03;;;;;;;;;;;21.90;99.90;;;;;;5112136;28;20296;-71
2021/09/07 07:57:28;;;;;;;;;;;21.70;99.90;;;;;;5111855;28;20334;-71
2021/09/07 07:59:54;;;;;;;;;;;21.70;99.90;;;;;;5111908;28;19918;-72
2021/09/07 08:02:19;;;;;;;;;;;21.90;99.90;;;;;;5098869;28;19915;-71
2021/09/07 08:04:45;;;;;;;;;;;22.60;99.90;;;;;;5112194;28;20002;-71
2021/09/07 08:07:10;;;;;;;;;;;23.50;99.90;;;;;;5112252;28;19960;-71
2021/09/07 08:09:36;;;;;;;;;;;22.80;99.90;;;;;;5107617;28;20408;-71
2021/09/07 08:12:01;;;;;;;;;;;24.00;99.90;;;;;;5094226;28;19950;-72
2021/09/07 08:14:27;;;;;;;;;;;24.70;99.90;;;;;;5112187;28;19999;-71
2021/09/07 08:16:52;;;;;;;;;;;24.70;99.90;;;;;;5112096;28;19914;-73
2021/09/07 08:19:18;;;;;;;;;;;24.60;99.90;;;;;;5102570;28;19951;-73
2021/09/07 08:21:44;;;;;;;;;;;24.30;99.90;;;;;;5116553;28;19912;-71
2021/09/07 08:24:09;;;;;;;;;;;24.50;99.90;;;;;;5115942;28;19908;-72
2021/09/07 08:26:35;;;;;;;;;;;24.70;99.90;;;;;;5115731;28;20365;-74
2021/09/07 08:29:00;;;;;;;;;;;25.10;99.90;;;;;;5115075;28;19915;-71
2021/09/07 08:31:26;;;;;;;;;;;25.20;99.90;;;;;;5112119;28;19916;-71
2021/09/07 08:33:52;;;;;;;;;;;25.30;99.10;;;;;;5111750;28;19914;-71
2021/09/07 08:36:17;;;;;;;;;;;26.10;99.80;;;;;;5106234;28;19908;-71
2021/09/07 08:38:43;;;;;;;;;;;25.50;99.20;;;;;;5111726;28;19908;-72
2021/09/07 08:41:08;;;;;;;;;;;23.80;99.90;;;;;;5112104;28;20314;-71
2021/09/07 08:43:34;;;;;;;;;;;23.60;99.90;;;;;;5111601;28;19959;-72
2021/09/07 08:45:59;;;;;;;;;;;24.80;99.90;;;;;;5111421;28;19912;-72
2021/09/07 08:48:26;;;;;;;;;;;25.80;98.10;;;;;;5098563;28;20386;-72
2021/09/07 08:50:51;;;;;;;;;;;26.10;96.60;;;;;;5111401;28;19936;-72
2021/09/07 08:53:17;;;;;;;;;;;26.60;95.10;;;;;;5093338;28;19927;-72
2021/09/07 08:55:42;;;;;;;;;;;26.80;97.40;;;;;;5111470;28;19916;-72
2021/09/07 08:58:09;;;;;;;;;;;27.20;97.60;;;;;;5111143;28;19908;-72
2021/09/07 09:00:34;;;;;;;;;;;27.80;95.20;;;;;;5111389;28;20387;-70
2021/09/07 09:03:12;;;;;;;;;;;28.00;93.70;;;;;;5111342;28;19908;-70
2021/09/07 09:05:40;;;;;;;;;;;28.30;93.80;;;;;;5111430;28;19958;-72
2021/09/07 09:08:09;;;;;;;;;;;28.20;93.40;;;;;;5111073;28;19915;-72
2021/09/07 09:10:34;;;;;;;;;;;28.50;93.90;;;;;;5104212;28;19922;-71
2021/09/07 09:13:04;;;;;;;;;;;28.80;93.70;;;;;;5110841;28;20006;-72
2021/09/07 09:15:30;;;;;;;;;;;28.80;93.50;;;;;;5111374;28;20387;-72
2021/09/07 09:18:03;;;;;;;;;;;29.60;91.30;;;;;;5095532;28;19909;-72
2021/09/07 09:20:28;;;;;;;;;;;29.10;90.70;;;;;;5111023;28;20387;-72
2021/09/07 09:22:55;;;;;;;;;;;28.60;90.70;;;;;;5111314;28;19912;-72
2021/09/07 09:25:23;;;;;;;;;;;29.00;92.40;;;;;;5110976;28;19912;-72
2021/09/07 09:27:49;;;;;;;;;;;28.50;91.50;;;;;;5110933;28;19908;-72
2021/09/07 09:30:15;;;;;;;;;;;28.70;90.70;;;;;;5111076;28;19923;-72
2021/09/07 09:32:48;;;;;;;;;;;29.70;91.10;;;;;;5111037;28;19908;-72
2021/09/07 09:35:13;;;;;;;;;;;29.90;85.70;;;;;;5104192;28;19933;-72
2021/09/07 09:37:55;;;;;;;;;;;29.40;90.10;;;;;;5114138;28;19908;-73
2021/09/07 09:40:21;;;;;;;;;;;29.20;85.30;;;;;;5114736;28;19908;-71
2021/09/07 09:42:49;;;;;;;;;;;29.40;90.00;;;;;;5114716;28;19990;-71
2021/09/07 09:45:16;;;;;;;;;;;30.30;81.40;;;;;;5114532;28;19912;-71
2021/09/07 09:47:45;;;;;;;;;;;30.50;82.20;;;;;;5100054;28;19916;-71
2021/09/07 09:50:11;;;;;;;;;;;30.70;82.90;;;;;;5114134;28;19957;-71
2021/09/07 09:52:41;;;;;;;;;;;30.70;79.60;;;;;;5114395;28;20291;-72
2021/09/07 09:55:08;;;;;;;;;;;31.10;80.60;;;;;;5114216;28;19915;-71
2021/09/07 09:57:34;;;;;;;;;;;30.00;85.50;;;;;;5113910;28;20498;-73
2021/09/07 10:00:02;;;;;;;;;;;30.30;81.20;;;;;;5114416;28;20373;-73
2021/09/07 10:02:29;;;;;;;;;;;29.00;81.30;;;;;;5107461;28;20412;-73
2021/09/07 10:04:55;;;;;;;;;;;29.30;85.00;;;;;;5113877;28;19915;-71
2021/09/07 10:07:20;;;;;;;;;;;30.70;84.40;;;;;;5113697;28;19961;-73
2021/09/07 10:09:48;;;;;;;;;;;31.20;81.40;;;;;;5099358;28;19916;-72
2021/09/07 10:12:18;;;;;;;;;;;31.60;82.70;;;;;;5113960;28;19908;-72
2021/09/07 10:14:56;;;;;;;;;;;31.30;76.20;;;;;;5114034;28;19908;-71
2021/09/07 10:17:28;;;;;;;;;;;31.00;77.10;;;;;;5104799;28;20368;-71
2021/09/07 10:23:05;;;;;;;;;;;30.40;76.90;;;;;;5113902;28;20398;-79
2021/09/07 10:25:49;;;;;;;;;;;29.50;78.20;;;;;;5113839;28;19999;-72
2021/09/07 10:28:27;;;;;;;;;;;30.50;79.10;;;;;;5113327;28;19907;-72
2021/09/07 10:31:12;;;;;;;;;;;30.30;75.90;;;;;;5113741;28;19919;-77
2021/09/07 10:33:38;;;;;;;;;;;30.80;77.90;;;;;;5113241;28;19916;-69
2021/09/07 10:36:23;;;;;;;;;;;30.80;77.10;;;;;;5087741;28;19908;-70
2021/09/07 10:38:49;;;;;;;;;;;30.20;77.50;;;;;;5113530;28;20449;-70
2021/09/07 10:41:33;;;;;;;;;;;30.80;77.40;;;;;;5113402;28;19908;-70
2021/09/07 10:44:00;;;;;;;;;;;31.00;77.60;;;;;;5113485;28;20003;-73
2021/09/07 10:46:38;;;;;;;;;;;31.60;78.40;;;;;;5112726;28;19915;-70
2021/09/07 10:49:44;;;;;;;;;;;30.80;75.90;;;;;;5093848;28;19951;-70
2021/09/07 10:52:14;;;;;;;;;;;31.20;74.70;;;;;;5072055;28;19912;-70
2021/09/07 10:54:41;;;;;;;;;;;31.40;75.00;;;;;;5092834;28;19915;-70
2021/09/07 10:57:07;;;;;;;;;;;31.50;75.00;;;;;;5092290;28;19916;-72
2021/09/07 10:59:43;;;;;;;;;;;30.70;75.40;;;;;;5092870;28;19908;-72
2021/09/07 11:02:27;;;;;;;;;;;30.70;78.70;;;;;;5091285;28;19916;-70
2021/09/07 11:04:53;;;;;;;;;;;32.00;74.20;;;;;;5072385;28;19916;-71
2021/09/07 11:07:37;;;;;;;;;;;31.50;73.60;;;;;;5072218;28;19909;-72
2021/09/07 11:10:03;;;;;;;;;;;31.80;70.80;;;;;;5076980;28;19913;-72
2021/09/07 11:12:30;;;;;;;;;;;30.80;73.40;;;;;;5092387;28;19972;-71
2021/09/07 11:15:09;;;;;;;;;;;31.90;74.60;;;;;;5092374;28;19961;-69
2021/09/07 11:17:35;;;;;;;;;;;31.20;71.30;;;;;;5085959;28;19916;-71
2021/09/07 11:20:06;;;;;;;;;;;30.80;71.50;;;;;;5091311;28;20062;-72
2021/09/07 11:22:32;;;;;;;;;;;30.80;72.80;;;;;;5092327;28;19915;-71
2021/09/07 11:25:01;;;;;;;;;;;31.60;75.60;;;;;;5092314;28;20434;-69
2021/09/07 11:27:27;;;;;;;;;;;31.10;72.20;;;;;;5091721;28;19908;-69
2021/09/07 11:29:52;;;;;;;;;;;31.40;73.10;;;;;;5091942;28;19918;-70
2021/09/07 11:32:19;;;;;;;;;;;30.40;69.10;;;;;;5092013;28;20292;-69
2021/09/07 11:35:04;;;;;;;;;;;31.40;78.10;;;;;;5090602;28;19927;-70
2021/09/07 11:37:30;;;;;;;;;;;32.10;68.90;;;;;;5091489;28;19908;-70
2021/09/07 11:40:08;;;;;;;;;;;31.50;69.30;;;;;;5090964;28;19916;-70
2021/09/07 11:42:43;;;;;;;;;;;31.20;65.90;;;;;;5091985;28;19908;-70
2021/09/07 11:45:15;;;;;;;;;;;30.80;66.70;;;;;;5091685;28;20067;-70
2021/09/07 11:47:42;;;;;;;;;;;31.50;73.00;;;;;;5079543;28;19917;-70
2021/09/07 11:50:08;;;;;;;;;;;31.80;70.10;;;;;;5091723;28;19912;-69
2021/09/07 11:52:33;;;;;;;;;;;32.00;72.00;;;;;;5091873;28;20313;-69
2021/09/07 11:54:59;;;;;;;;;;;30.50;65.70;;;;;;5091646;28;19969;-70
2021/09/07 11:57:24;;;;;;;;;;;30.40;71.30;;;;;;5091182;28;19962;-70
2021/09/07 11:59:59;;;;;;;;;;;31.00;67.90;;;;;;5091698;28;19908;-70
2021/09/07 12:02:27;;;;;;;;;;;31.60;71.60;;;;;;5090038;28;20007;-69
2021/09/07 12:04:59;;;;;;;;;;;30.60;70.70;;;;;;5091144;28;20326;-70
2021/09/07 12:07:24;;;;;;;;;;;28.60;75.90;;;;;;5089674;28;20464;-71
2021/09/07 12:09:50;;;;;;;;;;;27.20;75.50;;;;;;5087826;28;19999;-70
2021/09/07 12:12:15;;;;;;;;;;;26.10;76.90;;;;;;5090260;28;19919;-69
2021/09/07 12:14:45;;;;;;;;;;;25.60;79.30;;;;;;5090078;28;20349;-70
2021/09/07 12:17:12;;;;;;;;;;;25.60;78.90;;;;;;5087434;28;19914;-70
2021/09/07 12:19:41;;;;;;;;;;;25.60;80.80;;;;;;5086173;28;19915;-70
2021/09/07 12:22:07;;;;;;;;;;;25.40;77.60;;;;;;5082848;28;19953;-71
2021/09/07 12:24:33;;;;;;;;;;;25.30;77.90;;;;;;5091163;28;19985;-69
2021/09/07 12:26:58;;;;;;;;;;;25.00;79.90;;;;;;5091148;28;20280;-70
2021/09/07 12:29:24;;;;;;;;;;;24.60;77.40;;;;;;5091223;28;19908;-69
2021/09/07 12:31:49;;;;;;;;;;;24.90;77.40;;;;;;5091333;28;19947;-70
2021/09/07 12:34:23;;;;;;;;;;;24.90;79.90;;;;;;5091350;28;19996;-70
2021/09/07 12:36:50;;;;;;;;;;;24.80;79.20;;;;;;5086110;28;19908;-70
2021/09/07 12:39:16;;;;;;;;;;;25.10;77.20;;;;;;5091254;28;19927;-70
2021/09/07 12:41:43;;;;;;;;;;;25.10;78.60;;;;;;5091297;28;20270;-70
2021/09/07 12:44:10;;;;;;;;;;;24.70;79.50;;;;;;5091229;28;20373;-70
2021/09/07 12:46:36;;;;;;;;;;;24.40;78.00;;;;;;5101077;28;20383;-69
2021/09/07 12:49:01;;;;;;;;;;;24.70;80.70;;;;;;5111613;28;19908;-70
2021/09/07 12:51:27;;;;;;;;;;;24.70;80.30;;;;;;5110382;28;19919;-69
2021/09/07 12:53:58;;;;;;;;;;;24.70;80.40;;;;;;5111375;28;19918;-69
2021/09/07 12:56:29;;;;;;;;;;;24.30;80.20;;;;;;5110972;28;19908;-69
2021/09/07 12:58:56;;;;;;;;;;;24.60;82.40;;;;;;5111433;28;20345;-70
2021/09/07 13:01:25;;;;;;;;;;;24.40;80.30;;;;;;5111186;28;19912;-70
2021/09/07 13:03:51;;;;;;;;;;;24.50;80.80;;;;;;5111523;28;20387;-70
2021/09/07 13:06:18;;;;;;;;;;;24.50;79.70;;;;;;5110810;28;19994;-70
2021/09/07 13:08:45;;;;;;;;;;;24.50;84.50;;;;;;5111319;28;19908;-70
2021/09/07 13:11:11;;;;;;;;;;;24.40;82.00;;;;;;5108277;28;19912;-70
2021/09/07 13:13:36;;;;;;;;;;;24.30;80.50;;;;;;5115149;28;19957;-70
2021/09/07 13:16:02;;;;;;;;;;;24.20;85.30;;;;;;5114717;28;20292;-70
2021/09/07 13:18:30;;;;;;;;;;;24.30;83.20;;;;;;5096789;28;19908;-70
2021/09/07 13:20:57;;;;;;;;;;;24.40;84.30;;;;;;5098379;28;19959;-70
2021/09/07 13:23:22;;;;;;;;;;;24.40;82.40;;;;;;5096587;28;19969;-70
2021/09/07 13:25:48;;;;;;;;;;;24.40;82.00;;;;;;5114942;28;19912;-70
2021/09/07 13:28:15;;;;;;;;;;;24.30;84.10;;;;;;5114596;28;19954;-70
2021/09/07 13:30:41;;;;;;;;;;;24.50;82.60;;;;;;5114837;28;19912;-70
2021/09/07 13:33:06;;;;;;;;;;;24.50;83.70;;;;;;5114762;28;19908;-70
2021/09/07 13:35:32;;;;;;;;;;;24.50;83.10;;;;;;5108066;28;19918;-70
2021/09/07 13:37:58;;;;;;;;;;;24.60;87.40;;;;;;5114151;28;19908;-70
2021/09/07 13:40:23;;;;;;;;;;;24.30;82.80;;;;;;5114719;28;19912;-70
2021/09/07 13:42:49;;;;;;;;;;;24.50;81.10;;;;;;5114489;28;19914;-70
2021/09/07 13:45:14;;;;;;;;;;;24.30;82.90;;;;;;5114627;28;19956;-70
2021/09/07 13:47:40;;;;;;;;;;;24.10;83.40;;;;;;5113960;28;19944;-70
2021/09/07 13:50:06;;;;;;;;;;;24.20;81.60;;;;;;5108858;28;21068;-70
2021/09/07 13:52:31;;;;;;;;;;;24.10;84.80;;;;;;5104513;28;19929;-71
2021/09/07 13:54:57;;;;;;;;;;;24.10;84.50;;;;;;5114224;28;19908;-73
2021/09/07 13:57:24;;;;;;;;;;;24.00;84.00;;;;;;5113873;28;19915;-73
2021/09/07 13:59:49;;;;;;;;;;;24.00;84.10;;;;;;5114338;28;19919;-72
2021/09/07 14:02:15;;;;;;;;;;;24.30;86.30;;;;;;5103929;28;19912;-70
2021/09/07 14:04:40;;;;;;;;;;;24.20;88.10;;;;;;5113782;28;19912;-70
2021/09/07 14:07:06;;;;;;;;;;;24.00;81.70;;;;;;5113881;28;20330;-71
2021/09/07 14:09:31;;;;;;;;;;;24.20;85.80;;;;;;5110702;28;19908;-70
2021/09/07 14:11:57;;;;;;;;;;;24.20;82.10;;;;;;5094111;28;19911;-70
2021/09/07 14:14:22;;;;;;;;;;;24.40;83.20;;;;;;5114179;28;19907;-72
2021/09/07 14:16:48;;;;;;;;;;;24.20;83.00;;;;;;5113875;28;19931;-72
2021/09/07 14:19:13;;;;;;;;;;;24.20;83.40;;;;;;5113994;28;19951;-71
2021/09/07 14:21:39;;;;;;;;;;;24.30;79.70;;;;;;5098267;28;19908;-72